North Robinson, Ohio
Current Conditions -  °F | °C
As of 2:53 PM on Thursday 30 Oct 2014 (Local Time) from KMNN Reporting Station
Overcast Overcast  
Wind Chill: 47°   Ceiling: 3800
Heat Index: 49°   Visibility: 10mi
Dew Point: 33°   Wind: 5mph
Humidity: 54%   Direction: 310°NW
Pressure: 30.09"   Gusts: NA
Location:  40.79°N, 82.86°W
Report Text: KMNN 301853Z AUTO 31004KT 10SM OVC038 09/01 A3009 RMK AO2 SLP196 T00940006 TSNO
Loading
Personal Weather Stations






























Interactive Weather Map
Tropical Storm Tracking
New forecast layout! Learn more

10-Day Weather Forecast

Advertisements
Track Severe Weather on mobile